createdAt,value
2023-03-30T00:01:44.103Z,10.20
2023-03-30T00:04:12.319Z,10.20
2023-03-30T00:06:42.901Z,10.20
2023-03-30T00:09:10.812Z,10.20
2023-03-30T00:11:38.571Z,10.20
2023-03-30T00:14:07.703Z,10.10
2023-03-30T00:16:35.537Z,10.10
2023-03-30T00:19:03.358Z,10.20
2023-03-30T00:21:31.164Z,10.10
2023-03-30T00:23:58.968Z,10.20
2023-03-30T00:26:27.014Z,10.10
2023-03-30T00:28:54.734Z,10.10
2023-03-30T00:31:23.950Z,10.10
2023-03-30T00:33:51.728Z,10.10
2023-03-30T00:36:19.544Z,10.10
2023-03-30T00:38:48.290Z,10.10
2023-03-30T00:41:16.839Z,10.10
2023-03-30T00:43:58.370Z,10.10
2023-03-30T00:46:27.549Z,10.00
2023-03-30T00:48:58.696Z,10.00
2023-03-30T00:51:28.438Z,10.00
2023-03-30T00:54:00.958Z,10.00
2023-03-30T00:56:31.171Z,9.90
2023-03-30T00:58:59.097Z,9.90
2023-03-30T01:01:29.026Z,9.90
2023-03-30T01:04:00.532Z,9.90
2023-03-30T01:06:29.966Z,9.80
2023-03-30T01:08:58.983Z,9.80
2023-03-30T01:11:27.665Z,9.70
2023-03-30T01:13:59.264Z,9.70
2023-03-30T01:16:33.755Z,9.70
2023-03-30T01:19:19.774Z,9.50
2023-03-30T01:22:25.688Z,9.50
2023-03-30T01:25:40.398Z,9.40
2023-03-30T01:28:31.921Z,9.40
2023-03-30T01:31:28.018Z,9.40
2023-03-30T01:34:23.603Z,9.40
2023-03-30T01:37:17.978Z,9.40
2023-03-30T01:39:57.815Z,9.40
2023-03-30T01:42:34.560Z,9.50
2023-03-30T01:45:11.569Z,9.50
2023-03-30T01:47:45.623Z,9.60
2023-03-30T01:50:17.999Z,9.70
2023-03-30T01:52:54.533Z,9.70
2023-03-30T01:55:27.706Z,9.80
2023-03-30T01:58:02.673Z,9.80
2023-03-30T02:00:31.566Z,9.90
2023-03-30T02:03:06.743Z,9.90
2023-03-30T02:05:35.656Z,10.00
2023-03-30T02:08:08.307Z,10.00
2023-03-30T02:10:38.699Z,10.20
2023-03-30T02:13:07.246Z,10.20
2023-03-30T02:15:39.730Z,10.20
2023-03-30T02:18:07.615Z,10.30
2023-03-30T02:20:36.495Z,10.40
2023-03-30T02:23:06.607Z,10.60
2023-03-30T02:25:36.416Z,10.70
2023-03-30T02:28:06.186Z,10.80
2023-03-30T02:30:35.161Z,10.90
2023-03-30T02:33:03.787Z,10.90
2023-03-30T02:35:45.634Z,10.90
2023-03-30T02:38:48.009Z,11.00
2023-03-30T02:41:29.879Z,11.20
2023-03-30T02:44:08.296Z,11.20
2023-03-30T02:46:59.526Z,11.20
2023-03-30T02:49:41.956Z,11.20
2023-03-30T02:52:23.498Z,11.20
2023-03-30T02:54:58.709Z,11.20
2023-03-30T02:57:35.980Z,11.30
2023-03-30T03:00:10.571Z,11.40
2023-03-30T03:02:43.030Z,11.50
2023-03-30T03:05:12.224Z,11.50
2023-03-30T03:07:40.674Z,11.40
2023-03-30T03:10:09.993Z,11.40
2023-03-30T03:12:37.831Z,11.40
2023-03-30T03:15:08.241Z,11.30
2023-03-30T03:17:36.104Z,11.20
2023-03-30T03:20:04.684Z,11.20
2023-03-30T03:22:32.913Z,11.20
2023-03-30T03:25:02.445Z,11.10
2023-03-30T03:27:30.220Z,11.10
2023-03-30T03:29:58.773Z,11.00
2023-03-30T03:32:27.904Z,11.00
2023-03-30T03:34:55.843Z,10.90
2023-03-30T03:37:23.597Z,10.90
2023-03-30T03:39:51.573Z,10.80
2023-03-30T03:42:19.354Z,10.80
2023-03-30T03:44:47.154Z,10.80
2023-03-30T03:47:16.794Z,10.80
2023-03-30T03:49:45.940Z,10.80
2023-03-30T03:52:13.704Z,10.70
2023-03-30T03:54:41.471Z,10.60
2023-03-30T03:57:09.278Z,10.70
2023-03-30T03:59:37.078Z,10.70
2023-03-30T04:02:05.501Z,10.60
2023-03-30T04:04:33.364Z,10.60
2023-03-30T04:07:02.518Z,10.60
2023-03-30T04:09:30.467Z,10.60
2023-03-30T04:11:58.425Z,10.60
2023-03-30T04:14:26.429Z,10.60
2023-03-30T04:16:58.133Z,10.60
2023-03-30T04:19:27.612Z,10.50
2023-03-30T04:21:55.520Z,10.50
2023-03-30T04:24:25.884Z,10.50
2023-03-30T04:26:53.700Z,10.50
2023-03-30T04:29:21.663Z,10.50
2023-03-30T04:31:50.807Z,10.50
2023-03-30T04:34:21.842Z,10.50
2023-03-30T04:36:49.676Z,10.50
2023-03-30T04:39:18.044Z,10.60
2023-03-30T04:41:47.173Z,10.60
2023-03-30T04:44:15.076Z,10.60
2023-03-30T04:46:42.998Z,10.70
2023-03-30T04:49:10.768Z,10.70
2023-03-30T04:51:39.533Z,10.80
2023-03-30T04:54:07.489Z,10.80
2023-03-30T04:56:35.397Z,10.90
2023-03-30T04:59:04.543Z,10.90
2023-03-30T05:01:32.631Z,10.90
2023-03-30T05:04:00.464Z,10.90
2023-03-30T05:06:29.526Z,10.90
2023-03-30T05:08:57.421Z,10.90
2023-03-30T05:11:26.074Z,10.90
2023-03-30T05:13:53.935Z,10.90
2023-03-30T05:16:23.630Z,10.80
2023-03-30T05:18:51.858Z,10.80
2023-03-30T05:21:19.775Z,10.80
2023-03-30T05:23:47.701Z,10.80
2023-03-30T05:26:15.659Z,10.80
2023-03-30T05:28:43.907Z,10.80
2023-03-30T05:31:11.802Z,10.80
2023-03-30T05:33:43.749Z,10.80
2023-03-30T05:36:12.312Z,10.80
2023-03-30T05:38:40.571Z,10.80
2023-03-30T05:41:08.936Z,10.80
2023-03-30T05:43:37.543Z,10.80
2023-03-30T05:46:05.958Z,10.80
2023-03-30T05:48:33.762Z,10.80
2023-03-30T05:51:03.099Z,10.80
2023-03-30T05:53:30.947Z,10.80
2023-03-30T05:55:58.701Z,10.80
2023-03-30T05:58:27.332Z,10.80
2023-03-30T06:00:58.913Z,10.80
2023-03-30T06:03:26.717Z,10.90
2023-03-30T06:05:54.975Z,10.90
2023-03-30T06:08:24.281Z,10.90
2023-03-30T06:10:56.025Z,10.90
2023-03-30T06:13:24.052Z,11.00
2023-03-30T06:15:52.054Z,11.00
2023-03-30T06:18:19.977Z,11.00
2023-03-30T06:20:48.672Z,11.10
2023-03-30T06:23:16.980Z,11.10
2023-03-30T06:25:52.598Z,11.20
2023-03-30T06:28:21.129Z,11.20
2023-03-30T06:30:49.608Z,11.30
2023-03-30T06:33:17.704Z,11.30
2023-03-30T06:35:47.232Z,11.40
2023-03-30T06:38:15.126Z,11.30
2023-03-30T06:40:43.245Z,11.40
2023-03-30T06:43:17.667Z,11.30
2023-03-30T06:45:51.035Z,11.40
2023-03-30T06:48:20.351Z,11.40
2023-03-30T06:50:48.700Z,11.40
2023-03-30T06:53:16.888Z,11.50
2023-03-30T06:55:46.429Z,11.50
2023-03-30T06:58:15.555Z,11.50
2023-03-30T07:00:43.405Z,11.50
2023-03-30T07:03:11.288Z,11.50
2023-03-30T07:05:39.276Z,11.50
2023-03-30T07:08:08.608Z,11.50
2023-03-30T07:10:36.421Z,11.60
2023-03-30T07:13:04.185Z,11.60
2023-03-30T07:15:33.334Z,11.70
2023-03-30T07:18:01.642Z,11.70
2023-03-30T07:20:29.534Z,11.80
2023-03-30T07:22:57.416Z,11.90
2023-03-30T07:25:25.306Z,12.00
2023-03-30T07:27:53.076Z,12.00
2023-03-30T07:30:22.847Z,12.20
2023-03-30T07:32:52.477Z,12.30
2023-03-30T07:35:20.319Z,12.40
2023-03-30T07:37:50.872Z,12.40
2023-03-30T07:40:19.285Z,12.40
2023-03-30T07:42:47.716Z,12.30
2023-03-30T07:45:16.760Z,12.30
2023-03-30T07:47:44.668Z,12.30
2023-03-30T07:50:13.959Z,12.30
2023-03-30T07:52:41.774Z,12.20
2023-03-30T07:55:10.942Z,12.20
2023-03-30T07:57:38.783Z,12.30
2023-03-30T08:00:10.284Z,12.20
2023-03-30T08:02:38.959Z,12.30
2023-03-30T08:05:07.435Z,12.30
2023-03-30T08:07:36.863Z,12.20
2023-03-30T08:10:05.246Z,12.30
2023-03-30T08:12:33.027Z,12.40
2023-03-30T08:15:01.126Z,12.40
2023-03-30T08:17:29.388Z,12.40
2023-03-30T08:19:57.295Z,12.60
2023-03-30T08:22:25.100Z,12.70
2023-03-30T08:24:54.988Z,12.80
2023-03-30T08:27:22.869Z,12.80
2023-03-30T08:29:50.667Z,12.90
2023-03-30T08:32:18.479Z,13.00
2023-03-30T08:34:46.246Z,13.20
2023-03-30T08:37:14.007Z,13.30
2023-03-30T08:39:42.396Z,13.40
2023-03-30T08:42:35.683Z,13.40
2023-03-30T08:45:05.291Z,13.40
2023-03-30T08:47:35.988Z,13.30
2023-03-30T08:50:09.532Z,13.30
2023-03-30T08:52:38.202Z,13.30
2023-03-30T08:55:06.813Z,13.30
2023-03-30T08:57:47.096Z,13.40
2023-03-30T09:00:27.415Z,13.40
2023-03-30T09:03:03.475Z,13.50
2023-03-30T09:05:34.956Z,13.60
2023-03-30T09:08:09.449Z,13.70
2023-03-30T09:10:42.689Z,13.80
2023-03-30T09:13:15.548Z,14.00
2023-03-30T09:15:50.864Z,14.20
2023-03-30T09:18:23.713Z,14.30
2023-03-30T09:20:55.371Z,14.40
2023-03-30T09:23:24.432Z,14.30
2023-03-30T09:26:01.583Z,14.50
2023-03-30T09:28:35.562Z,14.70
2023-03-30T09:31:08.585Z,14.80
2023-03-30T09:33:45.397Z,15.00
2023-03-30T09:36:16.541Z,15.20
2023-03-30T09:38:45.187Z,15.50
2023-03-30T09:41:29.893Z,15.60
2023-03-30T09:44:01.165Z,15.60
2023-03-30T09:46:29.073Z,15.80
2023-03-30T09:49:14.341Z,15.60
2023-03-30T09:51:56.111Z,15.60
2023-03-30T09:54:25.894Z,16.00
2023-03-30T09:56:56.899Z,16.10
2023-03-30T09:59:34.877Z,16.10
2023-03-30T10:02:19.584Z,16.10
2023-03-30T10:05:00.503Z,16.10
2023-03-30T10:07:31.616Z,16.10
2023-03-30T10:10:01.281Z,16.10
2023-03-30T10:12:30.843Z,16.30
2023-03-30T10:15:04.236Z,16.60
2023-03-30T10:17:32.859Z,16.80
2023-03-30T10:20:23.887Z,16.90
2023-03-30T10:22:53.960Z,17.00
2023-03-30T10:25:24.890Z,17.00
2023-03-30T10:27:55.730Z,17.00
2023-03-30T10:30:28.269Z,17.00
2023-03-30T10:32:59.255Z,16.90
2023-03-30T10:35:33.918Z,16.50
2023-03-30T10:38:02.853Z,16.40
2023-03-30T10:40:36.594Z,16.10
2023-03-30T10:43:07.552Z,15.90
2023-03-30T10:45:42.835Z,15.70
2023-03-30T10:48:30.887Z,15.60
2023-03-30T10:51:08.304Z,15.40
2023-03-30T10:53:48.615Z,15.20
2023-03-30T10:56:27.103Z,15.10
2023-03-30T10:59:06.015Z,15.00
2023-03-30T11:01:42.789Z,15.00
2023-03-30T11:04:23.606Z,14.80
2023-03-30T11:06:54.420Z,14.60
2023-03-30T11:09:28.319Z,14.50
2023-03-30T11:12:01.284Z,14.60
2023-03-30T11:14:38.003Z,14.70
2023-03-30T11:17:13.775Z,14.80
2023-03-30T11:19:48.353Z,14.80
2023-03-30T11:22:23.566Z,14.60
2023-03-30T11:24:55.114Z,14.50
2023-03-30T11:27:27.873Z,14.20
2023-03-30T11:30:04.105Z,14.10
2023-03-30T11:32:42.766Z,13.90
2023-03-30T11:35:17.102Z,13.80
2023-03-30T11:37:51.263Z,13.40
2023-03-30T11:40:22.769Z,13.20
2023-03-30T11:42:52.479Z,13.00
2023-03-30T11:45:36.087Z,13.00
2023-03-30T11:48:19.046Z,12.90
2023-03-30T11:51:01.433Z,12.90
2023-03-30T11:53:34.839Z,12.90
2023-03-30T11:56:09.357Z,12.60
2023-03-30T11:58:39.049Z,12.50
2023-03-30T12:01:29.298Z,12.20
2023-03-30T12:04:05.438Z,12.00
2023-03-30T12:06:34.698Z,11.90
2023-03-30T12:09:22.075Z,11.90
2023-03-30T12:11:53.603Z,11.70
2023-03-30T12:14:38.148Z,11.60
2023-03-30T12:17:15.954Z,11.40
2023-03-30T12:19:56.439Z,11.40
2023-03-30T12:22:31.184Z,11.30
2023-03-30T12:25:04.812Z,11.20
2023-03-30T12:27:38.677Z,11.20
2023-03-30T12:30:25.988Z,11.20
2023-03-30T12:33:04.513Z,11.20
2023-03-30T12:35:57.388Z,11.20
2023-03-30T12:38:27.732Z,11.20
2023-03-30T12:41:05.736Z,11.20
2023-03-30T12:43:42.755Z,11.30
2023-03-30T12:46:20.230Z,11.30
2023-03-30T12:48:58.551Z,11.40
2023-03-30T12:51:44.537Z,11.40
2023-03-30T12:54:30.347Z,11.40
2023-03-30T12:57:03.317Z,11.30
2023-03-30T12:59:49.115Z,11.30
2023-03-30T13:02:36.002Z,11.30
2023-03-30T13:05:05.108Z,11.30
2023-03-30T13:07:36.340Z,11.40
2023-03-30T13:10:26.372Z,11.30
2023-03-30T13:12:58.141Z,11.40
2023-03-30T13:15:36.261Z,11.30
2023-03-30T13:18:06.245Z,11.30
2023-03-30T13:20:36.534Z,11.30
2023-03-30T13:23:28.044Z,11.30
2023-03-30T13:26:05.878Z,11.30
2023-03-30T13:28:48.659Z,11.30
2023-03-30T13:31:34.697Z,11.20
2023-03-30T13:34:13.261Z,11.20
2023-03-30T13:36:47.093Z,11.20
2023-03-30T13:39:22.794Z,11.30
2023-03-30T13:41:58.432Z,11.40
2023-03-30T13:44:43.723Z,11.40
2023-03-30T13:47:28.940Z,11.40
2023-03-30T13:50:01.278Z,11.40
2023-03-30T13:52:33.206Z,11.40
2023-03-30T13:55:03.912Z,11.40
2023-03-30T13:57:36.197Z,11.40
2023-03-30T14:00:08.042Z,11.30
2023-03-30T14:02:41.000Z,11.30
2023-03-30T14:05:15.193Z,11.30
2023-03-30T14:07:46.721Z,11.30
2023-03-30T14:10:18.462Z,11.30
2023-03-30T14:12:48.758Z,11.30
2023-03-30T14:15:19.488Z,11.30
2023-03-30T14:17:50.648Z,11.30
2023-03-30T14:20:28.152Z,11.40
2023-03-30T14:22:58.431Z,11.40
2023-03-30T14:25:30.676Z,11.40
2023-03-30T14:28:02.798Z,11.50
2023-03-30T14:30:30.888Z,11.50
2023-03-30T14:33:09.277Z,11.50
2023-03-30T14:35:41.855Z,11.50
2023-03-30T14:38:19.276Z,11.50
2023-03-30T14:40:49.103Z,11.60
2023-03-30T14:43:20.504Z,11.70
2023-03-30T14:45:48.920Z,11.90
2023-03-30T14:48:23.713Z,11.90
2023-03-30T14:50:52.293Z,12.00
2023-03-30T14:53:24.732Z,12.20
2023-03-30T14:55:58.054Z,12.20
2023-03-30T14:58:27.576Z,12.50
2023-03-30T15:00:58.797Z,12.60
2023-03-30T15:03:34.027Z,12.60
2023-03-30T15:06:03.127Z,12.60
2023-03-30T15:08:33.551Z,12.50
2023-03-30T15:11:07.979Z,12.50
2023-03-30T15:13:39.058Z,12.50
2023-03-30T15:16:08.184Z,12.40
2023-03-30T15:18:37.918Z,12.30
2023-03-30T15:21:06.381Z,12.20
2023-03-30T15:23:37.157Z,12.10
2023-03-30T15:26:08.126Z,12.10
2023-03-30T15:28:43.396Z,12.10
2023-03-30T15:31:12.157Z,12.20
2023-03-30T15:33:43.932Z,12.10
2023-03-30T15:36:14.815Z,12.20
2023-03-30T15:38:49.197Z,12.10
2023-03-30T15:41:19.612Z,12.20
2023-03-30T15:43:56.564Z,12.20
2023-03-30T15:46:24.857Z,12.30
2023-03-30T15:48:54.318Z,12.50
2023-03-30T15:51:27.544Z,12.50
2023-03-30T15:53:59.599Z,12.60
2023-03-30T15:56:34.273Z,12.60
2023-03-30T15:59:02.531Z,12.50
2023-03-30T16:01:44.462Z,12.40
2023-03-30T16:04:15.758Z,12.30
2023-03-30T16:06:45.846Z,12.30
2023-03-30T16:09:14.692Z,12.50
2023-03-30T16:11:45.321Z,12.40
2023-03-30T16:14:15.285Z,12.60
2023-03-30T16:16:43.150Z,12.70
2023-03-30T16:19:12.266Z,12.60
2023-03-30T16:21:40.197Z,12.60
2023-03-30T16:24:08.547Z,12.60
2023-03-30T16:26:36.394Z,12.60
2023-03-30T16:29:05.665Z,12.70
2023-03-30T16:31:34.746Z,12.70
2023-03-30T16:34:02.555Z,12.60
2023-03-30T16:36:30.442Z,12.50
2023-03-30T16:38:58.190Z,12.30
2023-03-30T16:41:26.535Z,12.20
2023-03-30T16:43:54.409Z,12.20
2023-03-30T16:46:24.192Z,12.10
2023-03-30T16:48:52.004Z,12.10
2023-03-30T16:51:20.179Z,12.10
2023-03-30T16:53:48.031Z,12.00
2023-03-30T16:56:18.211Z,12.00
2023-03-30T16:58:46.698Z,11.90
2023-03-30T17:01:18.308Z,11.80
2023-03-30T17:03:47.986Z,11.80
2023-03-30T17:06:16.918Z,11.70
2023-03-30T17:08:45.264Z,11.70
2023-03-30T17:11:13.441Z,11.70
2023-03-30T17:13:42.151Z,11.70
2023-03-30T17:16:12.194Z,11.70
2023-03-30T17:18:40.077Z,11.70
2023-03-30T17:21:16.016Z,11.70
2023-03-30T17:23:44.731Z,11.60
2023-03-30T17:26:12.971Z,11.70
2023-03-30T17:28:41.273Z,11.80
2023-03-30T17:31:15.478Z,11.70
2023-03-30T17:33:43.312Z,11.70
2023-03-30T17:36:17.437Z,11.60
2023-03-30T17:38:45.260Z,11.60
2023-03-30T17:41:14.340Z,11.60
2023-03-30T17:43:43.349Z,11.60
2023-03-30T17:46:12.771Z,11.50
2023-03-30T17:48:40.911Z,11.40
2023-03-30T17:51:08.808Z,11.40
2023-03-30T17:53:38.031Z,11.30
2023-03-30T17:56:06.630Z,11.20
2023-03-30T17:58:36.317Z,11.20
2023-03-30T18:01:07.193Z,11.20
2023-03-30T18:03:38.486Z,11.20
2023-03-30T18:06:07.173Z,11.10
2023-03-30T18:08:35.873Z,11.10
2023-03-30T18:11:05.656Z,11.20
2023-03-30T18:13:33.563Z,11.20
2023-03-30T18:16:02.133Z,11.10
2023-03-30T18:18:32.308Z,11.00
2023-03-30T18:21:02.591Z,11.00
2023-03-30T18:23:31.514Z,11.10
2023-03-30T18:25:59.406Z,11.10
2023-03-30T18:28:30.647Z,11.20
2023-03-30T18:31:00.406Z,11.10
2023-03-30T18:33:28.316Z,11.20
2023-03-30T18:35:57.618Z,11.20
2023-03-30T18:38:25.864Z,11.30
2023-03-30T18:40:57.753Z,11.10
2023-03-30T18:43:26.959Z,11.00
2023-03-30T18:46:01.065Z,11.10
2023-03-30T18:48:30.037Z,11.10
2023-03-30T18:50:58.190Z,11.10
2023-03-30T18:53:27.564Z,11.10
2023-03-30T18:55:58.370Z,11.20
2023-03-30T18:58:27.953Z,11.10
2023-03-30T19:00:57.494Z,11.00
2023-03-30T19:03:27.285Z,11.00
2023-03-30T19:05:55.369Z,11.00
2023-03-30T19:08:24.953Z,11.00
2023-03-30T19:10:54.862Z,11.00
2023-03-30T19:13:23.526Z,11.00
2023-03-30T19:15:52.739Z,10.90
2023-03-30T19:18:22.506Z,10.80
2023-03-30T19:20:51.841Z,10.70
2023-03-30T19:23:21.522Z,10.50
2023-03-30T19:25:49.830Z,10.50
2023-03-30T19:28:18.341Z,10.40
2023-03-30T19:30:46.561Z,10.40
2023-03-30T19:33:17.002Z,10.30
2023-03-30T19:35:46.929Z,10.30
2023-03-30T19:38:14.874Z,10.30
2023-03-30T19:40:43.410Z,10.40
2023-03-30T19:43:11.699Z,10.40
2023-03-30T19:45:39.544Z,10.40
2023-03-30T19:48:07.430Z,10.40
2023-03-30T19:50:35.454Z,10.40
2023-03-30T19:53:04.835Z,10.40
2023-03-30T19:55:32.619Z,10.60
2023-03-30T19:58:00.418Z,10.90
2023-03-30T20:00:28.621Z,10.90
2023-03-30T20:02:56.905Z,10.80
2023-03-30T20:05:26.164Z,10.70
2023-03-30T20:07:54.057Z,10.50
2023-03-30T20:10:24.929Z,10.50
2023-03-30T20:12:53.540Z,10.50
2023-03-30T20:15:22.476Z,10.40
2023-03-30T20:17:56.170Z,10.50
2023-03-30T20:20:25.224Z,10.40
2023-03-30T20:22:56.089Z,10.40
2023-03-30T20:25:25.993Z,10.40
2023-03-30T20:27:54.044Z,10.40
2023-03-30T20:30:22.197Z,10.40
2023-03-30T20:33:04.330Z,10.40
2023-03-30T20:35:36.272Z,10.30
2023-03-30T20:38:04.569Z,10.20
2023-03-30T20:40:33.877Z,10.20
2023-03-30T20:43:03.020Z,10.20
2023-03-30T20:45:31.634Z,10.10
2023-03-30T20:48:05.793Z,10.10
2023-03-30T20:50:34.481Z,10.00
2023-03-30T20:53:02.542Z,10.00
2023-03-30T20:55:30.477Z,9.90
2023-03-30T20:57:59.625Z,9.90
2023-03-30T21:00:27.556Z,9.90
2023-03-30T21:02:55.456Z,9.90
2023-03-30T21:05:23.262Z,9.80
2023-03-30T21:07:53.956Z,9.80
2023-03-30T21:10:22.092Z,9.60
2023-03-30T21:12:49.880Z,9.60
2023-03-30T21:15:19.485Z,9.60
2023-03-30T21:17:47.321Z,9.60
2023-03-30T21:20:15.824Z,9.50
2023-03-30T21:22:43.643Z,9.50
2023-03-30T21:25:12.849Z,9.50
2023-03-30T21:27:40.820Z,9.40
2023-03-30T21:30:10.671Z,9.40
2023-03-30T21:32:39.835Z,9.30
2023-03-30T21:35:08.027Z,9.30
2023-03-30T21:37:35.878Z,9.30
2023-03-30T21:40:03.741Z,9.20
2023-03-30T21:42:34.809Z,9.20
2023-03-30T21:45:02.599Z,9.20
2023-03-30T21:47:30.535Z,9.20
2023-03-30T21:49:59.688Z,9.20
2023-03-30T21:52:28.760Z,9.20
2023-03-30T21:54:56.536Z,9.10
2023-03-30T21:57:24.376Z,9.10
2023-03-30T21:59:52.296Z,9.00
2023-03-30T22:02:20.148Z,8.90
2023-03-30T22:04:48.121Z,8.80
2023-03-30T22:07:17.260Z,8.80
2023-03-30T22:09:45.627Z,8.70
2023-03-30T22:12:13.429Z,8.60
2023-03-30T22:14:41.184Z,8.50
2023-03-30T22:17:11.227Z,8.40
2023-03-30T22:19:40.452Z,8.30
2023-03-30T22:22:08.216Z,8.30
2023-03-30T22:24:37.545Z,8.20
2023-03-30T22:27:05.414Z,8.20
2023-03-30T22:29:33.255Z,8.10
2023-03-30T22:32:01.346Z,8.10
2023-03-30T22:34:30.836Z,8.00
2023-03-30T22:36:58.782Z,7.90
2023-03-30T22:39:26.611Z,7.90
2023-03-30T22:41:55.888Z,7.90
2023-03-30T22:44:23.697Z,7.90
2023-03-30T22:46:51.476Z,7.90
2023-03-30T22:49:19.224Z,7.80
2023-03-30T22:51:52.038Z,7.80
2023-03-30T22:54:21.263Z,7.80
2023-03-30T22:56:49.610Z,7.90
2023-03-30T22:59:18.789Z,7.90
2023-03-30T23:01:46.597Z,7.90
2023-03-30T23:04:14.441Z,7.90
2023-03-30T23:06:42.241Z,8.00
2023-03-30T23:09:13.353Z,8.00
2023-03-30T23:11:45.590Z,8.10
2023-03-30T23:14:13.589Z,8.10
2023-03-30T23:16:42.744Z,8.20
2023-03-30T23:19:11.960Z,8.20
2023-03-30T23:21:40.984Z,8.20
2023-03-30T23:24:11.921Z,8.10
2023-03-30T23:26:39.874Z,8.10
2023-03-30T23:29:08.205Z,8.20
2023-03-30T23:31:36.218Z,8.00
2023-03-30T23:34:05.574Z,8.10
2023-03-30T23:36:33.457Z,8.10
2023-03-30T23:39:01.220Z,8.00
2023-03-30T23:41:29.070Z,8.00
2023-03-30T23:43:56.958Z,7.90
2023-03-30T23:46:25.362Z,7.80
2023-03-30T23:48:53.208Z,7.80
2023-03-30T23:51:22.339Z,7.70
2023-03-30T23:53:54.240Z,7.70
2023-03-30T23:56:27.666Z,7.80
2023-03-30T23:58:55.428Z,7.70
